Terminal Aerodrome Forecast
Issued by NWS

Home | Current Version | Previous Version | Text Only | Print | Product List | Glossary On
Versions: 1 2 3 4 5 6 7 8 9 10 11 12 13 14 15 16 17 18 19
000
FTUS43 KAPX 101740
TAFTVC
TAF
KTVC 101740Z 1018/1118 27009KT P6SM VCSH OVC025
     FM102300 25005KT P6SM VCSH BKN025
     FM110900 VRB03KT 3SM -SN OVC030
     FM111100 16004KT 2SM -SN OVC022
     FM111300 15006KT 1 1/2SM -SN OVC015=

USA.gov is the U.S. government's official web portal to all federal, state and local government web resources and services.